Time;durP1;ratioP1;P1;durP2;ratioP2;P2;SDS_P1;SDS_P2;PMS_P1;PMS_P2;Temp;Humidity;BMP_temperature;BMP_pressure;BME280_temperature;BME280_humidity;BME280_pressure;Samples;Min_cycle;Max_cycle;Signal;HPM_P1;HPM_P2
2021/12/17 00:00:20;;;;;;;78.18;13.85;;;;;;;6.35;91.63;104114.81;5025495;28;20037;-70
2021/12/17 00:03:09;;;;;;;95.30;15.85;;;;;;;6.32;91.50;104118.22;5022758;28;20037;-72
2021/12/17 00:08:15;;;;;;;94.45;16.08;;;;;;;6.37;91.70;104112.25;5024847;28;20053;-70
2021/12/17 00:10:42;;;;;;;94.45;16.75;;;;;;;6.39;91.66;104115.84;5025512;28;20025;-66
2021/12/17 00:13:08;;;;;;;108.35;16.95;;;;;;;6.39;91.68;104115.84;5004409;28;20105;-71
2021/12/17 00:15:34;;;;;;;130.75;16.80;;;;;;;6.40;91.71;104122.84;5004851;28;20800;-70
2021/12/17 00:18:07;;;;;;;118.78;17.38;;;;;;;6.41;91.78;104122.91;5003866;28;20057;-71
2021/12/17 00:53:18;;;;;;;123.65;26.20;;;;;;;6.54;91.40;104110.25;5027847;28;20044;-72
2021/12/17 00:55:44;;;;;;;152.35;30.50;;;;;;;6.55;91.32;104118.19;5028265;28;20052;-71
2021/12/17 00:58:10;;;;;;;119.35;24.88;;;;;;;6.60;91.50;104114.81;5028106;28;20057;-70
2021/12/17 01:00:35;;;;;;;87.60;18.02;;;;;;;6.61;91.27;104108.72;5027986;28;20478;-71
2021/12/17 01:03:01;;;;;;;134.15;21.80;;;;;;;6.64;91.22;104112.38;5026780;28;20053;-72
2021/12/17 01:05:28;;;;;;;116.60;21.48;;;;;;;6.62;91.30;104121.91;5026709;28;20032;-72
2021/12/17 01:07:55;;;;;;;126.55;23.10;;;;;;;6.60;91.23;104120.97;5025170;28;20061;-72
2021/12/17 01:10:28;;;;;;;122.07;23.10;;;;;;;6.59;91.18;104127.03;5028249;28;20025;-70
2021/12/17 01:12:54;;;;;;;146.15;22.60;;;;;;;6.59;91.25;104120.91;5026791;28;20072;-69
2021/12/17 01:15:20;;;;;;;127.32;24.45;;;;;;;6.56;91.10;104113.81;5028239;28;20029;-71
2021/12/17 01:17:49;;;;;;;132.93;23.23;;;;;;;6.53;91.24;104114.59;5026478;28;20026;-70
2021/12/17 01:20:29;;;;;;;106.00;20.63;;;;;;;6.56;91.30;104112.09;5027303;28;20033;-69
2021/12/17 01:35:20;;;;;;;93.53;24.50;;;;;;;6.68;90.94;104101.16;5026936;28;20051;-72
2021/12/17 01:36:37;;;;;;;125.43;37.20;;;;;;;6.61;90.65;104111.34;5027018;28;20132;-70
2021/12/17 01:42:24;;;;;;;102.32;35.63;;;;;;;6.67;90.62;104124.69;5027375;28;20052;-71
2021/12/17 01:44:43;;;;;;;108.03;33.33;;;;;;;6.67;90.87;104114.19;5024604;28;20183;-70
2021/12/17 01:47:10;;;;;;;84.75;29.95;;;;;;;6.69;90.73;104117.78;5026637;28;20037;-71
2021/12/17 02:00:15;;;;;;;92.47;31.90;;;;;;;6.74;90.47;104121.44;5025796;28;20037;-72
2021/12/17 02:02:48;;;;;;;81.63;28.23;;;;;;;6.74;90.38;104112.72;5026222;28;20042;-72
2021/12/17 02:05:13;;;;;;;88.43;31.95;;;;;;;6.74;90.61;104116.19;5046408;28;20123;-70
2021/12/17 02:07:40;;;;;;;73.07;28.35;;;;;;;6.82;90.17;104112.13;5040385;22;20057;-70
2021/12/17 02:28:49;;;;;;;84.20;29.05;;;;;;;6.64;90.09;104107.13;5009593;28;20072;-69
2021/12/17 02:31:29;;;;;;;95.60;33.63;;;;;;;6.64;90.05;104108.84;5014708;28;20029;-69
2021/12/17 02:34:01;;;;;;;108.95;36.15;;;;;;;6.59;90.19;104106.06;4998650;28;20026;-70
2021/12/17 02:36:30;;;;;;;109.32;38.90;;;;;;;6.58;90.10;104106.91;5007101;28;20044;-69
2021/12/17 02:47:18;;;;;;;87.38;35.92;;;;;;;6.53;90.45;104125.06;5007722;28;20044;-69
2021/12/17 02:49:46;;;;;;;98.25;41.08;;;;;;;6.55;90.41;104120.81;5005655;28;20033;-70
2021/12/17 02:52:12;;;;;;;79.35;34.83;;;;;;;6.60;90.30;104114.81;5007742;28;20080;-70
2021/12/17 02:54:38;;;;;;;83.93;31.58;;;;;;;6.66;90.31;104115.03;5005316;28;20026;-70
2021/12/17 02:57:06;;;;;;;87.00;34.65;;;;;;;6.60;90.01;104112.22;4995881;28;20408;-69
2021/12/17 02:59:33;;;;;;;90.32;36.85;;;;;;;6.60;90.25;104118.34;4988445;28;20030;-70
2021/12/17 03:01:59;;;;;;;86.85;36.45;;;;;;;6.59;90.02;104113.06;5008260;28;20343;-70
2021/12/17 03:04:27;;;;;;;78.18;32.65;;;;;;;6.63;90.04;104107.97;5006858;28;20087;-70
2021/12/17 03:06:52;;;;;;;90.32;36.70;;;;;;;6.67;89.94;104104.63;5006830;28;20120;-69
2021/12/17 03:09:24;;;;;;;82.97;33.78;;;;;;;6.66;89.85;104108.09;5001552;28;20114;-70
2021/12/17 03:11:50;;;;;;;96.85;37.35;;;;;;;6.62;89.96;104113.16;5000646;28;20030;-69
2021/12/17 03:14:15;;;;;;;121.57;46.47;;;;;;;6.56;90.24;104108.56;5016133;28;20470;-69
2021/12/17 03:16:55;;;;;;;117.93;47.97;;;;;;;6.57;90.10;104111.25;5029274;28;20084;-70
2021/12/17 03:24:48;;;;;;;106.88;47.22;;;;;;;6.59;90.42;104102.56;5008168;28;20076;-70
2021/12/17 03:27:13;;;;;;;107.47;44.88;;;;;;;6.64;89.94;104100.97;5009888;28;20096;-69
2021/12/17 03:29:39;;;;;;;101.55;41.97;;;;;;;6.64;90.22;104104.50;5005685;28;20037;-69
2021/12/17 03:32:04;;;;;;;114.00;49.22;;;;;;;6.63;90.19;104102.72;4998970;28;20022;-69
2021/12/17 03:34:30;;;;;;;118.43;47.85;;;;;;;6.63;90.12;104104.44;5007211;28;20038;-68
2021/12/17 03:36:57;;;;;;;127.90;51.17;;;;;;;6.65;90.45;104103.66;5007347;28;20149;-69
2021/12/17 03:39:26;;;;;;;137.27;55.30;;;;;;;6.65;90.27;104108.03;5001719;28;20059;-70
2021/12/17 03:41:53;;;;;;;152.45;54.40;;;;;;;6.67;90.13;104109.88;4995511;28;20033;-72
2021/12/17 03:44:20;;;;;;;137.35;43.88;;;;;;;6.66;90.06;104105.47;5007458;28;20036;-70
2021/12/17 03:46:47;;;;;;;170.48;54.50;;;;;;;6.64;90.05;104104.50;5006525;28;20026;-69
2021/12/17 03:49:14;;;;;;;163.52;49.92;;;;;;;6.61;90.16;104103.50;5000330;28;20394;-72
2021/12/17 03:51:49;;;;;;;117.18;38.67;;;;;;;6.64;90.44;104107.13;4999010;28;20018;-70
2021/12/17 03:54:15;;;;;;;177.52;47.50;;;;;;;6.64;90.46;104106.22;4987296;28;20030;-70
2021/12/17 03:56:40;;;;;;;151.85;41.55;;;;;;;6.65;90.58;104108.03;5004979;28;20029;-71
2021/12/17 03:59:10;;;;;;;173.70;46.08;;;;;;;6.60;90.31;104105.25;4994313;28;20017;-69
2021/12/17 04:01:38;;;;;;;169.45;44.17;;;;;;;6.56;90.37;104109.47;5007196;28;20034;-69
2021/12/17 04:04:04;;;;;;;140.43;34.50;;;;;;;6.62;90.40;104110.53;5004307;28;20529;-70
2021/12/17 04:06:29;;;;;;;160.18;36.42;;;;;;;6.57;90.54;104115.63;5004153;28;20168;-69
2021/12/17 04:08:55;;;;;;;138.18;35.95;;;;;;;6.56;90.49;104119.94;5011690;28;20044;-70
2021/12/17 04:11:21;;;;;;;174.63;43.75;;;;;;;6.52;90.54;104118.06;5028896;28;20041;-69
2021/12/17 04:13:54;;;;;;;127.68;31.48;;;;;;;6.58;90.51;104117.38;5030398;28;20060;-69
2021/12/17 04:16:24;;;;;;;128.23;35.30;;;;;;;6.62;90.48;104108.78;5029248;28;20317;-70
2021/12/17 04:18:49;;;;;;;120.97;33.25;;;;;;;6.65;89.78;104110.66;5025266;28;20385;-69
2021/12/17 04:21:15;;;;;;;92.18;27.05;;;;;;;6.66;90.06;104109.81;5011836;28;20030;-69
2021/12/17 04:23:42;;;;;;;82.30;23.95;;;;;;;6.64;90.02;104117.63;5012425;28;20124;-70
2021/12/17 04:26:07;;;;;;;67.40;24.02;;;;;;;6.53;89.71;104117.22;5010649;28;20080;-69
2021/12/17 04:28:36;;;;;;;68.40;24.65;;;;;;;6.49;89.78;104119.66;5011767;28;20029;-70
2021/12/17 04:31:01;;;;;;;47.90;19.20;;;;;;;6.49;89.77;104120.56;5009931;28;20033;-69
2021/12/17 04:33:27;;;;;;;69.22;24.35;;;;;;;6.46;89.79;104123.06;5009416;28;20297;-69
2021/12/17 04:35:52;;;;;;;69.28;27.05;;;;;;;6.46;89.95;104128.31;5010505;28;20359;-69
2021/12/17 04:38:19;;;;;;;60.90;25.98;;;;;;;6.44;89.95;104127.34;5010731;28;20056;-69
2021/12/17 04:40:46;;;;;;;57.35;23.02;;;;;;;6.41;90.18;104117.66;5011243;28;20809;-69
2021/12/17 04:43:39;;;;;;;64.68;25.40;;;;;;;6.39;89.88;104123.69;5009947;28;20359;-70
2021/12/17 04:46:24;;;;;;;67.97;28.98;;;;;;;6.39;90.32;104132.47;5010335;28;20022;-70
2021/12/17 04:59:45;;;;;;;49.03;19.88;;;;;;;6.40;89.30;104109.75;5011405;28;20060;-69
2021/12/17 05:02:10;;;;;;;45.35;19.08;;;;;;;6.38;89.41;104119.31;5009942;28;20025;-69
2021/12/17 05:04:37;;;;;;;47.30;18.00;;;;;;;6.39;89.55;104123.69;5008727;28;20113;-70
2021/12/17 05:07:06;;;;;;;41.80;17.42;;;;;;;6.38;89.37;104121.91;5010377;28;20054;-69
2021/12/17 05:10:00;;;;;;;33.63;15.70;;;;;;;6.35;89.06;104116.56;5009206;28;20056;-70
2021/12/17 05:21:04;;;;;;;41.33;16.60;;;;;;;6.43;89.07;104102.91;5009084;28;20037;-70
2021/12/17 05:23:28;;;;;;;55.92;21.10;;;;;;;6.40;89.28;104102.78;5008157;28;20045;-69
2021/12/17 05:25:54;;;;;;;64.95;22.80;;;;;;;6.39;89.38;104105.34;5018687;28;20029;-70
2021/12/17 05:28:20;;;;;;;65.75;23.58;;;;;;;6.39;89.76;104106.25;5029220;28;20033;-70
2021/12/17 05:30:47;;;;;;;61.67;23.05;;;;;;;6.38;89.82;104106.19;5029585;28;20029;-69
2021/12/17 05:33:14;;;;;;;79.40;25.58;;;;;;;6.33;89.95;104119.13;5015290;28;20029;-69
2021/12/17 05:35:40;;;;;;;72.32;24.80;;;;;;;6.31;89.97;104119.06;5010878;28;20030;-69
2021/12/17 05:38:06;;;;;;;74.22;25.88;;;;;;;6.28;90.23;104124.19;5008174;28;20025;-69
2021/12/17 05:40:31;;;;;;;77.25;26.10;;;;;;;6.30;90.23;104127.75;5019779;28;20161;-70
2021/12/17 05:43:00;;;;;;;77.75;25.20;;;;;;;6.29;90.29;104123.34;5009454;28;20486;-70
2021/12/17 05:46:10;;;;;;;94.70;26.73;;;;;;;6.28;90.26;104128.53;5008889;28;20026;-70
2021/12/17 05:48:16;;;;;;;81.90;22.40;;;;;;;6.27;90.24;104122.41;5002725;28;20060;-70
2021/12/17 05:50:43;;;;;;;86.40;23.80;;;;;;;6.27;90.41;104119.78;5010563;28;20684;-69
2021/12/17 05:53:09;;;;;;;99.25;26.38;;;;;;;6.29;90.46;104115.50;5008674;28;20107;-70
2021/12/17 05:55:36;;;;;;;100.90;26.42;;;;;;;6.25;90.39;104118.84;5008221;28;20533;-70
2021/12/17 05:58:05;;;;;;;96.20;26.10;;;;;;;6.26;90.60;104127.59;4992315;28;20084;-68
2021/12/17 06:00:32;;;;;;;100.50;26.75;;;;;;;6.26;90.64;104119.75;5008540;28;20069;-69
2021/12/17 06:03:00;;;;;;;93.57;24.25;;;;;;;6.29;90.47;104125.97;5009594;28;20029;-69
2021/12/17 06:05:26;;;;;;;99.55;25.25;;;;;;;6.29;90.42;104127.72;5007681;28;20017;-69
2021/12/17 06:07:52;;;;;;;100.40;26.35;;;;;;;6.30;90.36;104132.97;5009278;28;20078;-70
2021/12/17 06:10:17;;;;;;;108.68;25.75;;;;;;;6.29;90.51;104131.19;5008214;28;21023;-68
2021/12/17 06:12:43;;;;;;;107.03;27.23;;;;;;;6.30;90.67;104138.22;5008494;28;20057;-69
2021/12/17 06:15:12;;;;;;;106.80;27.10;;;;;;;6.31;90.44;104133.88;5008245;28;20033;-70
2021/12/17 06:17:42;;;;;;;106.07;24.50;;;;;;;6.34;90.59;104143.56;5007899;28;20029;-70
2021/12/17 06:20:10;;;;;;;92.88;24.70;;;;;;;6.38;90.60;104145.50;5006489;28;20434;-70
2021/12/17 06:22:35;;;;;;;82.82;21.35;;;;;;;6.39;90.41;104149.88;5016614;28;20076;-68
2021/12/17 06:25:01;;;;;;;80.55;21.73;;;;;;;6.41;90.30;104150.84;5009301;28;20088;-69
2021/12/17 06:27:26;;;;;;;92.97;23.88;;;;;;;6.38;90.20;104143.75;5009207;28;20049;-69
2021/12/17 06:29:52;;;;;;;94.20;23.67;;;;;;;6.41;90.16;104140.38;5008019;28;20037;-69
2021/12/17 06:32:20;;;;;;;93.65;22.98;;;;;;;6.39;90.19;104150.78;5008273;28;20484;-69
2021/12/17 06:34:46;;;;;;;84.57;21.67;;;;;;;6.40;90.51;104154.28;5005778;28;20022;-69
2021/12/17 06:37:13;;;;;;;93.03;22.40;;;;;;;6.39;90.41;104149.88;5019257;28;20025;-69
2021/12/17 06:39:41;;;;;;;79.07;19.40;;;;;;;6.41;90.30;104148.22;5028986;28;20501;-70
2021/12/17 06:42:06;;;;;;;67.07;18.45;;;;;;;6.43;90.24;104138.69;5026072;28;20112;-69
2021/12/17 06:44:32;;;;;;;93.40;24.48;;;;;;;6.41;90.14;104148.22;5007466;28;20490;-69
2021/12/17 06:49:49;;;;;;;70.20;18.85;;;;;;;6.45;90.04;104147.50;5006682;28;20041;-69
2021/12/17 06:55:21;;;;;;;98.13;23.85;;;;;;;6.39;90.19;104152.50;5009923;28;20405;-70
2021/12/17 07:00:58;;;;;;;94.85;23.50;;;;;;;6.38;90.37;104151.59;4999417;28;20542;-69
2021/12/17 07:22:41;;;;;;;58.22;15.15;;;;;;;6.46;90.00;104165.00;5007678;28;20466;-70
2021/12/17 07:41:01;;;;;;;64.93;17.05;;;;;;;6.48;89.66;104172.91;4998726;28;20038;-70
2021/12/17 07:44:13;;;;;;;54.83;14.82;;;;;;;6.50;89.80;104182.59;4996505;28;20169;-71
2021/12/17 07:46:13;;;;;;;64.05;16.00;;;;;;;6.52;89.62;104188.81;4996130;28;20041;-71
2021/12/17 07:48:39;;;;;;;59.65;15.90;;;;;;;6.48;89.79;104181.69;5003814;28;20065;-70
2021/12/17 07:51:07;;;;;;;66.85;18.40;;;;;;;6.48;89.78;104181.69;5004967;28;20033;-68
2021/12/17 07:53:34;;;;;;;64.18;17.15;;;;;;;6.48;89.86;104184.28;4997345;28;20034;-69
2021/12/17 07:56:01;;;;;;;49.67;13.25;;;;;;;6.51;89.92;104188.75;4996263;28;20065;-69
2021/12/17 07:58:27;;;;;;;60.75;17.30;;;;;;;6.52;89.97;104191.44;4998799;28;20068;-69
2021/12/17 08:00:53;;;;;;;72.50;18.67;;;;;;;6.55;89.82;104194.16;5004352;28;20415;-70
2021/12/17 08:03:19;;;;;;;52.70;13.73;;;;;;;6.60;90.01;104194.34;5005110;28;20026;-69
2021/12/17 08:05:44;;;;;;;55.80;15.10;;;;;;;6.61;89.68;104192.59;5006633;28;20041;-69
2021/12/17 08:08:10;;;;;;;65.55;18.52;;;;;;;6.58;89.77;104198.63;5004509;28;20053;-69
2021/12/17 08:10:36;;;;;;;69.60;18.67;;;;;;;6.57;89.71;104200.34;5008914;28;20068;-69
2021/12/17 08:13:01;;;;;;;51.60;14.52;;;;;;;6.62;89.90;104205.75;5007083;28;20493;-69
2021/12/17 08:15:35;;;;;;;56.20;17.70;;;;;;;6.61;89.66;104200.44;5005159;28;20427;-69
2021/12/17 08:26:03;;;;;;;51.08;16.02;;;;;;;6.66;89.16;104191.94;4988876;28;20049;-67
2021/12/17 08:28:39;;;;;;;49.03;16.10;;;;;;;6.67;89.04;104188.47;5002706;28;20088;-70
2021/12/17 08:31:04;;;;;;;40.05;13.77;;;;;;;6.70;89.15;104185.97;5001752;28;20113;-70
2021/12/17 08:33:30;;;;;;;55.10;16.60;;;;;;;6.65;89.00;104186.66;4990520;28;20121;-70
2021/12/17 08:35:57;;;;;;;51.97;16.35;;;;;;;6.65;89.19;104189.28;5007409;28;20476;-69
2021/12/17 08:38:25;;;;;;;51.90;16.55;;;;;;;6.67;89.47;104179.72;4990988;28;20080;-69
2021/12/17 08:40:50;;;;;;;64.13;16.70;;;;;;;6.69;89.30;104191.16;5004977;28;20580;-70
2021/12/17 08:43:16;;;;;;;56.33;16.17;;;;;;;6.74;89.20;104188.72;5007475;28;20030;-69
2021/12/17 08:45:42;;;;;;;54.63;16.08;;;;;;;6.81;89.05;104181.09;5011749;28;20629;-69
2021/12/17 08:48:08;;;;;;;51.10;16.10;;;;;;;6.90;88.81;104182.28;5009375;28;20040;-69
2021/12/17 08:50:34;;;;;;;49.20;16.02;;;;;;;6.90;88.54;104192.78;5011306;28;20490;-69
2021/12/17 08:53:00;;;;;;;49.72;16.42;;;;;;;6.90;88.54;104190.16;5009257;28;20432;-67
2021/12/17 08:55:25;;;;;;;53.90;16.80;;;;;;;6.93;88.17;104190.25;5011106;28;20025;-67
2021/12/17 08:57:50;;;;;;;50.72;16.73;;;;;;;6.98;88.35;104190.44;5001409;28;20512;-69
2021/12/17 09:00:16;;;;;;;50.70;16.55;;;;;;;7.06;88.24;104189.84;5002532;28;20092;-72
2021/12/17 09:02:41;;;;;;;49.03;15.88;;;;;;;7.07;87.90;104191.63;4993567;28;20072;-71
2021/12/17 09:05:08;;;;;;;43.65;15.18;;;;;;;7.06;88.05;104202.97;4999497;28;20027;-70
2021/12/17 09:07:34;;;;;;;48.40;15.50;;;;;;;7.05;88.01;104200.28;4994768;28;20260;-70
2021/12/17 09:10:03;;;;;;;43.85;14.95;;;;;;;7.14;87.73;104195.38;5009636;28;20125;-70
2021/12/17 09:12:29;;;;;;;;;;;;;;;7.20;87.25;104192.06;5009892;28;20026;-69
2021/12/17 09:14:54;;;;;;;45.40;14.15;;;;;;;7.08;87.69;104190.78;5008200;28;19913;-71
2021/12/17 09:17:21;;;;;;;47.90;14.63;;;;;;;7.11;87.68;104197.88;5010488;28;20122;-70
2021/12/17 09:19:47;;;;;;;53.25;15.18;;;;;;;7.13;87.97;104190.06;5008630;28;20026;-70
2021/12/17 09:22:12;;;;;;;40.78;14.38;;;;;;;7.13;87.50;104188.31;5010664;28;20033;-70
2021/12/17 09:24:37;;;;;;;43.60;15.18;;;;;;;7.20;87.50;104194.69;5009913;28;20437;-70
2021/12/17 09:27:03;;;;;;;41.10;13.48;;;;;;;7.25;88.00;104198.34;5008677;28;20029;-70
2021/12/17 09:29:29;;;;;;;42.45;15.13;;;;;;;7.26;87.36;104200.16;5009670;28;20459;-70
2021/12/17 09:31:54;;;;;;;41.88;14.32;;;;;;;7.31;87.54;104197.66;5008739;28;20030;-71
2021/12/17 09:34:20;;;;;;;35.92;13.55;;;;;;;7.38;87.47;104204.03;5007282;28;20029;-70
2021/12/17 09:36:45;;;;;;;34.50;12.77;;;;;;;7.45;87.20;104203.38;5009206;28;20558;-70
2021/12/17 09:39:11;;;;;;;30.85;11.88;;;;;;;7.47;87.03;104204.34;5008130;28;20033;-70
2021/12/17 09:41:36;;;;;;;32.30;12.65;;;;;;;7.49;86.67;104209.66;5008787;28;20478;-70
2021/12/17 09:44:01;;;;;;;29.92;11.45;;;;;;;7.51;86.87;104218.44;5009023;28;20061;-72
2021/12/17 09:46:27;;;;;;;27.25;11.52;;;;;;;7.50;86.09;104212.31;5019141;28;20080;-71
2021/12/17 09:48:54;;;;;;;27.73;11.20;;;;;;;7.48;86.35;104211.38;5028571;28;20488;-71
2021/12/17 09:51:20;;;;;;;29.48;11.55;;;;;;;7.49;86.58;104221.00;5028771;28;20160;-70
2021/12/17 09:53:47;;;;;;;33.22;11.25;;;;;;;7.53;86.34;104225.50;5012631;28;20034;-72
2021/12/17 09:56:13;;;;;;;31.60;11.52;;;;;;;7.50;86.71;104224.53;5008059;28;20034;-70
2021/12/17 09:58:38;;;;;;;34.72;11.85;;;;;;;7.46;86.82;104218.28;5009188;28;20025;-70
2021/12/17 10:01:04;;;;;;;28.17;10.90;;;;;;;7.53;86.59;104228.13;5025044;28;20448;-72
2021/12/17 10:03:30;;;;;;;25.40;10.63;;;;;;;7.58;86.34;104231.81;5027128;28;20033;-70
2021/12/17 10:05:56;;;;;;;25.75;10.23;;;;;;;7.58;86.30;104231.81;5027463;28;20037;-70
2021/12/17 10:08:23;;;;;;;20.52;8.27;;;;;;;7.70;85.79;104231.34;5018804;28;20050;-69
2021/12/17 10:10:57;;;;;;;26.58;10.27;;;;;;;7.76;85.27;104238.53;5007240;28;20334;-70
2021/12/17 10:13:28;;;;;;;23.02;9.88;;;;;;;7.71;85.71;104237.50;5003504;28;20136;-70
2021/12/17 10:16:12;;;;;;;22.98;9.93;;;;;;;7.70;85.69;104236.59;5008498;28;20034;-69
2021/12/17 10:18:38;;;;;;;21.02;9.45;;;;;;;7.75;85.49;104227.97;5007196;28;20022;-69
2021/12/17 10:21:10;;;;;;;25.38;9.65;;;;;;;7.61;85.71;104240.66;5011162;28;20045;-69
2021/12/17 10:23:36;;;;;;;22.83;9.10;;;;;;;7.64;86.03;104245.97;4993145;28;20025;-71
2021/12/17 10:26:03;;;;;;;22.88;8.93;;;;;;;7.71;85.61;104248.88;5000318;28;20098;-69
2021/12/17 10:28:30;;;;;;;17.88;8.55;;;;;;;7.69;85.49;104255.81;5002424;28;20091;-70
2021/12/17 10:30:56;;;;;;;12.00;6.63;;;;;;;7.59;85.54;104251.97;5008961;28;20033;-70
2021/12/17 10:33:24;;;;;;;14.93;8.10;;;;;;;7.68;85.22;104253.13;5004158;28;20053;-69
2021/12/17 10:35:51;;;;;;;16.50;7.97;;;;;;;7.66;85.34;104249.56;5004796;28;20131;-70
2021/12/17 10:38:18;;;;;;;14.55;6.95;;;;;;;7.70;85.47;104239.22;5000140;28;20035;-71
2021/12/17 10:40:55;;;;;;;16.10;7.25;;;;;;;7.71;85.34;104250.63;5004862;28;20129;-68
2021/12/17 10:43:25;;;;;;;14.10;7.18;;;;;;;7.72;85.25;104255.03;5001047;28;20117;-68
2021/12/17 10:46:21;;;;;;;15.10;7.13;;;;;;;7.80;85.48;104248.28;4999211;28;20030;-67
2021/12/17 10:48:52;;;;;;;10.05;5.75;;;;;;;7.92;84.30;104257.41;5000092;28;20135;-70
2021/12/17 10:54:19;;;;;;;10.45;5.50;;;;;;;8.02;84.38;104250.72;5004577;28;20057;-69
2021/12/17 10:56:52;;;;;;;12.13;6.30;;;;;;;8.09;83.81;104250.06;5004944;28;20029;-70
2021/12/17 10:59:18;;;;;;;11.13;5.97;;;;;;;7.91;84.22;104250.34;5003101;28;20029;-70
2021/12/17 11:01:58;;;;;;;13.25;6.35;;;;;;;7.89;84.31;104247.69;5003580;28;20525;-69
2021/12/17 11:04:35;;;;;;;10.68;5.25;;;;;;;8.03;83.46;104244.59;4987236;28;20037;-70
2021/12/17 11:07:11;;;;;;;15.13;6.50;;;;;;;7.83;84.47;104248.38;5006660;28;20068;-70
2021/12/17 11:09:42;;;;;;;11.25;6.07;;;;;;;7.84;84.64;104244.94;5007873;28;20030;-69
2021/12/17 11:12:13;;;;;;;10.43;5.68;;;;;;;7.87;84.60;104244.13;5007666;28;20084;-70
2021/12/17 11:14:39;;;;;;;13.10;5.65;;;;;;;7.84;84.57;104247.56;4999878;28;20073;-70
2021/12/17 11:17:05;;;;;;;12.55;6.20;;;;;;;7.82;84.16;104241.34;4991281;28;20026;-72
2021/12/17 11:19:30;;;;;;;12.40;5.82;;;;;;;7.77;84.41;104242.91;4993733;28;20026;-70
2021/12/17 11:21:57;;;;;;;11.05;6.00;;;;;;;7.79;84.38;104246.50;4999869;28;20041;-71
2021/12/17 11:24:23;;;;;;;9.75;5.35;;;;;;;7.79;84.07;104243.88;4999918;28;20026;-70
2021/12/17 11:26:49;;;;;;;11.77;5.47;;;;;;;7.77;84.41;104236.78;4992627;28;20088;-71
2021/12/17 11:29:16;;;;;;;8.55;4.22;;;;;;;7.68;83.77;104242.63;5006538;28;20054;-69
2021/12/17 11:31:41;;;;;;;6.07;3.60;;;;;;;7.79;83.47;104243.88;4991853;28;20083;-69
2021/12/17 11:34:07;;;;;;;5.57;3.35;;;;;;;7.91;82.90;104237.22;5012291;28;20025;-70
2021/12/17 11:36:32;;;;;;;7.35;3.30;;;;;;;7.83;82.63;104232.63;5009980;28;20084;-71
2021/12/17 11:39:04;;;;;;;5.63;3.80;;;;;;;7.79;82.89;104228.13;4996742;28;20064;-71
2021/12/17 11:41:52;;;;;;;4.13;2.80;;;;;;;7.85;82.49;104224.78;5005414;28;20030;-69
2021/12/17 11:44:19;;;;;;;9.27;5.93;;;;;;;7.81;82.40;104221.19;5005097;28;20496;-70
2021/12/17 11:47:00;;;;;;;5.75;3.58;;;;;;;7.78;82.28;104220.19;5008336;28;20021;-70
2021/12/17 11:49:26;;;;;;;5.88;3.20;;;;;;;7.81;82.37;104223.81;5002200;28;20030;-70
2021/12/17 11:51:53;;;;;;;7.22;3.70;;;;;;;7.63;82.80;104224.09;5000118;28;20026;-71
2021/12/17 11:54:25;;;;;;;7.40;3.85;;;;;;;7.70;82.90;104220.84;5008329;28;20030;-71
2021/12/17 11:56:55;;;;;;;5.88;3.50;;;;;;;7.69;82.75;104207.66;5007804;28;20022;-70
2021/12/17 11:59:31;;;;;;;6.03;3.28;;;;;;;7.65;83.19;104211.03;5008112;28;20026;-70
2021/12/17 12:02:22;;;;;;;6.35;3.40;;;;;;;7.53;83.47;104222.88;5008018;28;20052;-71
2021/12/17 12:04:48;;;;;;;4.65;3.10;;;;;;;7.45;83.50;104219.13;5006414;28;20084;-69
2021/12/17 12:07:40;;;;;;;5.57;3.00;;;;;;;7.53;83.21;104225.50;5008968;28;20050;-71
2021/12/17 12:10:15;;;;;;;4.22;3.17;;;;;;;7.51;83.30;104229.84;5005324;28;20120;-69
2021/12/17 12:12:45;;;;;;;6.22;3.55;;;;;;;7.44;83.00;104233.09;5002745;28;20116;-69
2021/12/17 12:15:16;;;;;;;;;;;;;;;7.49;82.63;104220.13;4992736;28;20108;-70
2021/12/17 12:18:02;;;;;;;6.22;3.30;;;;;;;7.41;83.11;104220.75;4992911;28;19920;-69
2021/12/17 12:20:46;;;;;;;4.78;3.47;;;;;;;7.38;83.34;104233.78;5003021;28;20022;-70
2021/12/17 12:23:24;;;;;;;3.40;2.83;;;;;;;7.42;83.43;104234.75;5010891;28;20113;-70
2021/12/17 12:26:01;;;;;;;6.00;3.75;;;;;;;7.42;83.56;104240.91;4998789;28;20029;-69
2021/12/17 12:28:52;;;;;;;3.75;2.72;;;;;;;7.49;82.95;104235.88;5010440;28;20474;-69
2021/12/17 12:31:24;;;;;;;4.47;2.92;;;;;;;7.45;83.29;104237.50;5011398;28;20045;-70
2021/12/17 12:34:06;;;;;;;5.00;3.42;;;;;;;7.43;83.29;104234.81;5010265;28;20215;-69
2021/12/17 12:37:11;;;;;;;4.75;3.17;;;;;;;7.37;83.37;104225.88;5010407;28;20109;-69
2021/12/17 12:39:43;;;;;;;5.90;3.72;;;;;;;7.23;83.75;104222.75;5012062;28;20026;-70
2021/12/17 12:42:22;;;;;;;6.78;3.55;;;;;;;7.21;83.78;104227.94;5006640;28;20045;-69
2021/12/17 12:44:48;;;;;;;;;;;;;;;7.24;83.73;104232.41;5009564;28;20489;-69
2021/12/17 12:47:19;;;;;;;9.80;3.55;;;;;;;7.26;83.68;104225.47;5011472;28;19953;-68
2021/12/17 12:49:54;;;;;;;5.07;3.50;;;;;;;7.28;83.71;104235.19;5010886;28;20041;-69
2021/12/17 12:52:27;;;;;;;5.43;3.15;;;;;;;7.33;83.40;104220.50;5003077;28;20030;-68
2021/12/17 12:54:55;;;;;;;3.55;2.88;;;;;;;7.41;83.07;104212.88;5000884;28;20442;-70
2021/12/17 12:57:32;;;;;;;5.85;3.00;;;;;;;7.40;82.46;104215.44;5000689;28;20052;-69
2021/12/17 13:00:00;;;;;;;2.97;1.80;;;;;;;7.41;82.41;104212.00;5000430;28;20054;-69
2021/12/17 13:02:26;;;;;;;2.83;2.03;;;;;;;7.38;82.56;104214.53;4999915;28;20026;-69
2021/12/17 13:04:57;;;;;;;3.28;2.33;;;;;;;7.41;82.28;104209.38;5002376;28;20038;-70
2021/12/17 13:07:41;;;;;;;2.50;2.30;;;;;;;7.39;82.35;104214.56;5001789;28;20038;-69
2021/12/17 13:10:20;;;;;;;2.28;2.05;;;;;;;7.31;82.56;104211.69;5008295;28;20032;-69
2021/12/17 13:13:07;;;;;;;3.03;2.42;;;;;;;7.33;82.65;104214.34;5009034;28;20018;-70
2021/12/17 13:21:35;;;;;;;4.00;2.30;;;;;;;7.41;82.63;104207.63;5004102;28;20112;-69
2021/12/17 13:24:13;;;;;;;3.55;2.60;;;;;;;7.26;83.30;104200.16;5009437;28;20018;-69
2021/12/17 13:26:59;;;;;;;2.42;2.20;;;;;;;7.32;83.04;104200.34;5011289;28;20033;-70
2021/12/17 13:29:34;;;;;;;5.32;3.58;;;;;;;7.27;83.50;104201.94;5026621;28;20408;-69
2021/12/17 13:32:01;;;;;;;5.22;3.90;;;;;;;7.23;83.67;104205.28;5028638;28;20104;-70
2021/12/17 13:34:35;;;;;;;6.38;4.38;;;;;;;7.23;83.73;104194.81;5019596;28;20034;-70
2021/12/17 13:37:14;;;;;;;6.47;4.20;;;;;;;7.26;83.90;104192.28;5010980;28;20100;-70
2021/12/17 13:39:44;;;;;;;4.90;4.05;;;;;;;7.28;83.82;104195.84;5011040;28;20026;-70
2021/12/17 13:42:14;;;;;;;4.88;3.65;;;;;;;7.26;83.61;104192.28;5017484;28;20053;-68
2021/12/17 13:45:02;;;;;;;5.97;4.30;;;;;;;7.35;83.26;104199.56;5031453;28;20028;-69
2021/12/17 13:47:35;;;;;;;4.53;3.40;;;;;;;7.41;83.11;104189.25;5029032;28;20037;-69
2021/12/17 13:50:09;;;;;;;4.50;3.67;;;;;;;7.51;82.32;104193.09;5028719;28;20396;-69
2021/12/17 13:52:46;;;;;;;4.25;3.10;;;;;;;7.63;81.57;104183.84;5030908;28;20539;-70
2021/12/17 13:55:17;;;;;;;5.47;3.15;;;;;;;7.64;81.53;104196.09;5030969;28;20502;-69
2021/12/17 13:57:43;;;;;;;3.70;3.05;;;;;;;7.70;81.09;104194.59;5025604;28;20481;-70
2021/12/17 14:00:10;;;;;;;4.68;2.88;;;;;;;7.68;81.04;104200.63;5028805;28;20025;-69
2021/12/17 14:02:36;;;;;;;4.22;3.50;;;;;;;7.61;81.18;104199.53;5028271;28;20556;-71
2021/12/17 14:05:13;;;;;;;4.18;2.83;;;;;;;7.65;80.97;104182.16;5019972;28;20068;-71
2021/12/17 14:07:39;;;;;;;3.15;2.85;;;;;;;7.67;80.84;104191.88;5008714;28;20045;-71
2021/12/17 14:10:08;;;;;;;3.85;3.03;;;;;;;7.65;80.80;104197.91;5007590;28;20046;-69
2021/12/17 14:12:42;;;;;;;5.10;3.22;;;;;;;7.57;80.72;104198.56;5011856;28;20030;-69
2021/12/17 14:15:19;;;;;;;6.47;3.15;;;;;;;7.49;81.20;104200.03;5024080;28;20022;-68
2021/12/17 14:17:48;;;;;;;5.93;4.18;;;;;;;7.50;81.22;104198.28;4991362;28;20378;-71
2021/12/17 14:20:16;;;;;;;5.20;3.83;;;;;;;7.49;81.50;104200.03;5018051;28;20049;-71
2021/12/17 14:22:47;;;;;;;8.38;4.20;;;;;;;7.39;81.95;104200.56;5009838;28;20592;-70
2021/12/17 14:25:30;;;;;;;4.75;3.38;;;;;;;7.43;82.19;104194.56;4999466;28;20029;-67